sensor_id;sensor_type;location;lat;lon;timestamp;P1;durP1;ratioP1;P2;durP2;ratioP2
10248;SDS011;5169;50.560;9.714;2022-12-07T00:01:50;7.93;;;5.43;;
10248;SDS011;5169;50.560;9.714;2022-12-07T00:04:20;8.90;;;5.70;;
10248;SDS011;5169;50.560;9.714;2022-12-07T00:06:52;7.77;;;5.53;;
10248;SDS011;5169;50.560;9.714;2022-12-07T00:09:21;8.70;;;6.47;;
10248;SDS011;5169;50.560;9.714;2022-12-07T00:11:51;9.80;;;6.47;;
10248;SDS011;5169;50.560;9.714;2022-12-07T00:14:20;9.57;;;6.17;;
10248;SDS011;5169;50.560;9.714;2022-12-07T00:16:48;7.43;;;4.87;;
10248;SDS011;5169;50.560;9.714;2022-12-07T00:19:19;6.17;;;5.00;;
10248;SDS011;5169;50.560;9.714;2022-12-07T00:21:47;7.87;;;4.77;;
10248;SDS011;5169;50.560;9.714;2022-12-07T00:24:15;6.93;;;5.00;;
10248;SDS011;5169;50.560;9.714;2022-12-07T00:26:47;9.70;;;5.60;;
10248;SDS011;5169;50.560;9.714;2022-12-07T00:29:16;6.90;;;5.17;;
10248;SDS011;5169;50.560;9.714;2022-12-07T00:31:46;6.90;;;5.90;;
10248;SDS011;5169;50.560;9.714;2022-12-07T00:34:14;8.30;;;5.77;;
10248;SDS011;5169;50.560;9.714;2022-12-07T00:36:47;8.00;;;6.33;;
10248;SDS011;5169;50.560;9.714;2022-12-07T00:39:22;7.73;;;5.77;;
10248;SDS011;5169;50.560;9.714;2022-12-07T00:41:47;9.83;;;6.30;;
10248;SDS011;5169;50.560;9.714;2022-12-07T00:44:15;9.20;;;5.77;;
10248;SDS011;5169;50.560;9.714;2022-12-07T00:46:43;7.80;;;5.53;;
10248;SDS011;5169;50.560;9.714;2022-12-07T00:49:10;8.30;;;5.80;;
10248;SDS011;5169;50.560;9.714;2022-12-07T00:51:36;7.30;;;5.73;;
10248;SDS011;5169;50.560;9.714;2022-12-07T00:54:02;9.73;;;5.80;;
10248;SDS011;5169;50.560;9.714;2022-12-07T00:56:28;8.87;;;6.23;;
10248;SDS011;5169;50.560;9.714;2022-12-07T00:58:57;9.73;;;6.07;;
10248;SDS011;5169;50.560;9.714;2022-12-07T01:01:35;7.57;;;5.67;;
10248;SDS011;5169;50.560;9.714;2022-12-07T01:04:02;11.53;;;6.20;;
10248;SDS011;5169;50.560;9.714;2022-12-07T01:06:37;9.43;;;6.77;;
10248;SDS011;5169;50.560;9.714;2022-12-07T01:09:03;8.30;;;6.17;;
10248;SDS011;5169;50.560;9.714;2022-12-07T01:11:33;11.20;;;6.27;;
10248;SDS011;5169;50.560;9.714;2022-12-07T01:13:59;8.50;;;5.83;;
10248;SDS011;5169;50.560;9.714;2022-12-07T01:16:26;11.00;;;6.93;;
10248;SDS011;5169;50.560;9.714;2022-12-07T01:19:00;11.43;;;7.17;;
10248;SDS011;5169;50.560;9.714;2022-12-07T01:21:36;10.20;;;6.83;;
10248;SDS011;5169;50.560;9.714;2022-12-07T01:24:10;10.27;;;6.83;;
10248;SDS011;5169;50.560;9.714;2022-12-07T01:26:38;11.47;;;7.43;;
10248;SDS011;5169;50.560;9.714;2022-12-07T01:29:04;11.20;;;7.67;;
10248;SDS011;5169;50.560;9.714;2022-12-07T01:31:32;13.30;;;7.90;;
10248;SDS011;5169;50.560;9.714;2022-12-07T01:33:58;14.50;;;8.37;;
10248;SDS011;5169;50.560;9.714;2022-12-07T01:36:34;11.40;;;7.70;;
10248;SDS011;5169;50.560;9.714;2022-12-07T01:39:03;11.13;;;7.23;;
10248;SDS011;5169;50.560;9.714;2022-12-07T01:41:33;11.23;;;7.57;;
10248;SDS011;5169;50.560;9.714;2022-12-07T01:47:00;11.43;;;8.13;;
10248;SDS011;5169;50.560;9.714;2022-12-07T01:51:58;12.93;;;7.43;;
10248;SDS011;5169;50.560;9.714;2022-12-07T01:54:49;12.93;;;8.73;;
10248;SDS011;5169;50.560;9.714;2022-12-07T01:57:17;14.47;;;8.73;;
10248;SDS011;5169;50.560;9.714;2022-12-07T01:59:44;11.87;;;7.80;;
10248;SDS011;5169;50.560;9.714;2022-12-07T02:02:18;15.63;;;8.70;;
10248;SDS011;5169;50.560;9.714;2022-12-07T02:05:01;14.53;;;8.90;;
10248;SDS011;5169;50.560;9.714;2022-12-07T02:07:36;13.43;;;8.90;;
10248;SDS011;5169;50.560;9.714;2022-12-07T02:10:13;14.10;;;8.03;;
10248;SDS011;5169;50.560;9.714;2022-12-07T02:12:49;9.00;;;5.40;;
10248;SDS011;5169;50.560;9.714;2022-12-07T02:18:44;12.90;;;8.60;;
10248;SDS011;5169;50.560;9.714;2022-12-07T02:30:08;15.43;;;9.37;;
10248;SDS011;5169;50.560;9.714;2022-12-07T02:35:26;15.10;;;8.50;;
10248;SDS011;5169;50.560;9.714;2022-12-07T02:38:18;15.20;;;9.07;;
10248;SDS011;5169;50.560;9.714;2022-12-07T02:44:12;16.17;;;8.93;;
10248;SDS011;5169;50.560;9.714;2022-12-07T02:46:21;13.63;;;7.97;;
10248;SDS011;5169;50.560;9.714;2022-12-07T02:48:55;14.97;;;8.63;;
10248;SDS011;5169;50.560;9.714;2022-12-07T02:51:27;14.37;;;8.90;;
10248;SDS011;5169;50.560;9.714;2022-12-07T02:53:56;16.73;;;9.93;;
10248;SDS011;5169;50.560;9.714;2022-12-07T02:56:35;15.50;;;9.97;;
10248;SDS011;5169;50.560;9.714;2022-12-07T03:10:35;16.10;;;9.77;;
10248;SDS011;5169;50.560;9.714;2022-12-07T03:13:25;11.17;;;6.93;;
10248;SDS011;5169;50.560;9.714;2022-12-07T03:18:41;11.33;;;7.17;;
10248;SDS011;5169;50.560;9.714;2022-12-07T03:21:24;13.43;;;8.20;;
10248;SDS011;5169;50.560;9.714;2022-12-07T03:23:58;15.20;;;9.00;;
10248;SDS011;5169;50.560;9.714;2022-12-07T03:26:38;8.27;;;5.47;;
10248;SDS011;5169;50.560;9.714;2022-12-07T03:29:17;14.97;;;8.57;;
10248;SDS011;5169;50.560;9.714;2022-12-07T03:31:54;11.87;;;8.10;;
10248;SDS011;5169;50.560;9.714;2022-12-07T03:34:49;14.77;;;9.93;;
10248;SDS011;5169;50.560;9.714;2022-12-07T03:38:05;14.43;;;8.30;;
10248;SDS011;5169;50.560;9.714;2022-12-07T03:40:39;15.63;;;9.00;;
10248;SDS011;5169;50.560;9.714;2022-12-07T03:43:16;19.60;;;8.70;;
10248;SDS011;5169;50.560;9.714;2022-12-07T03:45:44;14.57;;;8.47;;
10248;SDS011;5169;50.560;9.714;2022-12-07T03:48:40;14.27;;;8.40;;
10248;SDS011;5169;50.560;9.714;2022-12-07T03:51:19;14.23;;;7.80;;
10248;SDS011;5169;50.560;9.714;2022-12-07T03:56:56;15.13;;;8.13;;
10248;SDS011;5169;50.560;9.714;2022-12-07T03:59:27;11.93;;;7.47;;
10248;SDS011;5169;50.560;9.714;2022-12-07T04:01:55;14.77;;;8.20;;
10248;SDS011;5169;50.560;9.714;2022-12-07T04:04:28;10.10;;;5.90;;
10248;SDS011;5169;50.560;9.714;2022-12-07T04:06:54;14.60;;;8.90;;
10248;SDS011;5169;50.560;9.714;2022-12-07T04:09:20;10.03;;;6.10;;
10248;SDS011;5169;50.560;9.714;2022-12-07T04:11:49;14.10;;;8.13;;
10248;SDS011;5169;50.560;9.714;2022-12-07T04:14:17;13.27;;;7.87;;
10248;SDS011;5169;50.560;9.714;2022-12-07T04:16:46;12.23;;;7.83;;
10248;SDS011;5169;50.560;9.714;2022-12-07T04:19:22;7.13;;;4.90;;
10248;SDS011;5169;50.560;9.714;2022-12-07T04:21:49;6.23;;;3.47;;
10248;SDS011;5169;50.560;9.714;2022-12-07T04:24:17;12.00;;;7.90;;
10248;SDS011;5169;50.560;9.714;2022-12-07T04:26:44;12.37;;;7.50;;
10248;SDS011;5169;50.560;9.714;2022-12-07T04:29:10;13.83;;;8.10;;
10248;SDS011;5169;50.560;9.714;2022-12-07T04:31:42;15.27;;;9.03;;
10248;SDS011;5169;50.560;9.714;2022-12-07T04:34:08;13.17;;;7.30;;
10248;SDS011;5169;50.560;9.714;2022-12-07T04:36:35;16.97;;;8.47;;
10248;SDS011;5169;50.560;9.714;2022-12-07T04:39:23;11.80;;;8.00;;
10248;SDS011;5169;50.560;9.714;2022-12-07T04:42:00;13.67;;;7.70;;
10248;SDS011;5169;50.560;9.714;2022-12-07T04:44:34;12.93;;;7.47;;
10248;SDS011;5169;50.560;9.714;2022-12-07T04:47:00;13.07;;;8.50;;
10248;SDS011;5169;50.560;9.714;2022-12-07T04:49:25;16.77;;;8.67;;
10248;SDS011;5169;50.560;9.714;2022-12-07T04:51:54;11.20;;;7.23;;
10248;SDS011;5169;50.560;9.714;2022-12-07T04:54:20;11.77;;;7.30;;
10248;SDS011;5169;50.560;9.714;2022-12-07T04:56:48;13.43;;;8.00;;
10248;SDS011;5169;50.560;9.714;2022-12-07T04:59:21;15.60;;;8.13;;
10248;SDS011;5169;50.560;9.714;2022-12-07T05:01:49;12.60;;;8.53;;
10248;SDS011;5169;50.560;9.714;2022-12-07T05:04:14;12.63;;;8.30;;
10248;SDS011;5169;50.560;9.714;2022-12-07T05:06:46;12.13;;;8.20;;
10248;SDS011;5169;50.560;9.714;2022-12-07T05:09:12;12.73;;;8.60;;
10248;SDS011;5169;50.560;9.714;2022-12-07T05:11:46;13.03;;;7.60;;
10248;SDS011;5169;50.560;9.714;2022-12-07T05:14:13;12.10;;;7.43;;
10248;SDS011;5169;50.560;9.714;2022-12-07T05:16:45;15.20;;;9.10;;
10248;SDS011;5169;50.560;9.714;2022-12-07T05:19:12;12.47;;;8.07;;
10248;SDS011;5169;50.560;9.714;2022-12-07T05:21:45;14.10;;;9.00;;
10248;SDS011;5169;50.560;9.714;2022-12-07T05:24:12;12.47;;;7.67;;
10248;SDS011;5169;50.560;9.714;2022-12-07T05:26:44;13.23;;;7.57;;
10248;SDS011;5169;50.560;9.714;2022-12-07T05:29:11;14.47;;;8.53;;
10248;SDS011;5169;50.560;9.714;2022-12-07T05:31:38;12.30;;;8.23;;
10248;SDS011;5169;50.560;9.714;2022-12-07T05:34:08;11.97;;;7.20;;
10248;SDS011;5169;50.560;9.714;2022-12-07T05:36:36;15.37;;;8.90;;
10248;SDS011;5169;50.560;9.714;2022-12-07T05:39:02;13.43;;;8.97;;
10248;SDS011;5169;50.560;9.714;2022-12-07T05:41:31;13.13;;;8.10;;
10248;SDS011;5169;50.560;9.714;2022-12-07T05:44:18;14.67;;;8.77;;
10248;SDS011;5169;50.560;9.714;2022-12-07T05:46:46;13.97;;;8.33;;
10248;SDS011;5169;50.560;9.714;2022-12-07T05:49:12;12.83;;;8.00;;
10248;SDS011;5169;50.560;9.714;2022-12-07T05:51:37;12.00;;;8.03;;
10248;SDS011;5169;50.560;9.714;2022-12-07T05:54:03;16.60;;;8.40;;
10248;SDS011;5169;50.560;9.714;2022-12-07T05:56:44;12.33;;;7.97;;
10248;SDS011;5169;50.560;9.714;2022-12-07T05:59:10;11.20;;;7.47;;
10248;SDS011;5169;50.560;9.714;2022-12-07T06:01:52;11.50;;;6.33;;
10248;SDS011;5169;50.560;9.714;2022-12-07T06:04:25;10.77;;;7.20;;
10248;SDS011;5169;50.560;9.714;2022-12-07T06:06:59;8.07;;;5.27;;
10248;SDS011;5169;50.560;9.714;2022-12-07T06:09:27;11.20;;;7.50;;
10248;SDS011;5169;50.560;9.714;2022-12-07T06:12:09;12.13;;;7.10;;
10248;SDS011;5169;50.560;9.714;2022-12-07T06:14:55;10.70;;;6.67;;
10248;SDS011;5169;50.560;9.714;2022-12-07T06:17:21;11.00;;;7.00;;
10248;SDS011;5169;50.560;9.714;2022-12-07T06:19:47;9.90;;;6.70;;
10248;SDS011;5169;50.560;9.714;2022-12-07T06:22:13;11.00;;;7.00;;
10248;SDS011;5169;50.560;9.714;2022-12-07T06:24:39;11.00;;;6.80;;
10248;SDS011;5169;50.560;9.714;2022-12-07T06:27:11;9.93;;;6.83;;
10248;SDS011;5169;50.560;9.714;2022-12-07T06:29:36;11.07;;;6.93;;
10248;SDS011;5169;50.560;9.714;2022-12-07T06:32:04;9.40;;;6.73;;
10248;SDS011;5169;50.560;9.714;2022-12-07T06:34:33;8.30;;;5.97;;
10248;SDS011;5169;50.560;9.714;2022-12-07T06:36:59;10.23;;;7.07;;
10248;SDS011;5169;50.560;9.714;2022-12-07T06:39:28;9.63;;;6.47;;
10248;SDS011;5169;50.560;9.714;2022-12-07T06:41:57;9.60;;;5.90;;
10248;SDS011;5169;50.560;9.714;2022-12-07T06:44:24;10.60;;;6.90;;
10248;SDS011;5169;50.560;9.714;2022-12-07T06:46:51;9.23;;;6.20;;
10248;SDS011;5169;50.560;9.714;2022-12-07T06:49:16;9.50;;;6.47;;
10248;SDS011;5169;50.560;9.714;2022-12-07T06:51:42;10.80;;;6.90;;
10248;SDS011;5169;50.560;9.714;2022-12-07T06:54:09;8.93;;;6.40;;
10248;SDS011;5169;50.560;9.714;2022-12-07T06:56:40;12.40;;;7.37;;
10248;SDS011;5169;50.560;9.714;2022-12-07T06:59:06;10.63;;;7.00;;
10248;SDS011;5169;50.560;9.714;2022-12-07T07:01:33;10.73;;;6.77;;
10248;SDS011;5169;50.560;9.714;2022-12-07T07:04:02;10.73;;;6.60;;
10248;SDS011;5169;50.560;9.714;2022-12-07T07:06:28;9.10;;;6.10;;
10248;SDS011;5169;50.560;9.714;2022-12-07T07:08:56;9.93;;;6.27;;
10248;SDS011;5169;50.560;9.714;2022-12-07T07:11:29;7.87;;;5.63;;
10248;SDS011;5169;50.560;9.714;2022-12-07T07:13:55;7.77;;;5.60;;
10248;SDS011;5169;50.560;9.714;2022-12-07T07:16:27;8.07;;;6.23;;
10248;SDS011;5169;50.560;9.714;2022-12-07T07:18:58;9.27;;;6.00;;
10248;SDS011;5169;50.560;9.714;2022-12-07T07:21:26;7.17;;;5.23;;
10248;SDS011;5169;50.560;9.714;2022-12-07T07:23:54;9.33;;;6.60;;
10248;SDS011;5169;50.560;9.714;2022-12-07T07:26:21;6.20;;;5.10;;
10248;SDS011;5169;50.560;9.714;2022-12-07T07:28:46;6.77;;;4.50;;
10248;SDS011;5169;50.560;9.714;2022-12-07T07:31:15;8.20;;;5.80;;
10248;SDS011;5169;50.560;9.714;2022-12-07T07:33:40;7.93;;;5.70;;
10248;SDS011;5169;50.560;9.714;2022-12-07T07:36:06;8.60;;;6.50;;
10248;SDS011;5169;50.560;9.714;2022-12-07T07:38:32;8.80;;;5.80;;
10248;SDS011;5169;50.560;9.714;2022-12-07T07:41:06;8.80;;;5.93;;
10248;SDS011;5169;50.560;9.714;2022-12-07T07:43:32;8.73;;;6.17;;
10248;SDS011;5169;50.560;9.714;2022-12-07T07:46:06;6.77;;;5.83;;
10248;SDS011;5169;50.560;9.714;2022-12-07T07:48:31;8.37;;;5.03;;
10248;SDS011;5169;50.560;9.714;2022-12-07T07:50:57;6.83;;;4.17;;
10248;SDS011;5169;50.560;9.714;2022-12-07T07:53:23;7.03;;;5.43;;
10248;SDS011;5169;50.560;9.714;2022-12-07T07:55:53;6.97;;;5.40;;
10248;SDS011;5169;50.560;9.714;2022-12-07T07:58:21;9.47;;;5.67;;
10248;SDS011;5169;50.560;9.714;2022-12-07T08:00:57;9.07;;;6.23;;
10248;SDS011;5169;50.560;9.714;2022-12-07T08:03:34;9.10;;;6.83;;
10248;SDS011;5169;50.560;9.714;2022-12-07T08:06:07;9.00;;;6.43;;
10248;SDS011;5169;50.560;9.714;2022-12-07T08:08:33;8.73;;;5.73;;
10248;SDS011;5169;50.560;9.714;2022-12-07T08:11:05;6.83;;;5.43;;
10248;SDS011;5169;50.560;9.714;2022-12-07T08:13:34;6.50;;;4.87;;
10248;SDS011;5169;50.560;9.714;2022-12-07T08:16:05;8.83;;;5.67;;
10248;SDS011;5169;50.560;9.714;2022-12-07T08:18:35;5.10;;;3.67;;
10248;SDS011;5169;50.560;9.714;2022-12-07T08:21:09;7.70;;;5.27;;
10248;SDS011;5169;50.560;9.714;2022-12-07T08:23:37;8.83;;;5.57;;
10248;SDS011;5169;50.560;9.714;2022-12-07T08:26:06;7.43;;;5.50;;
10248;SDS011;5169;50.560;9.714;2022-12-07T08:28:43;7.67;;;4.83;;
10248;SDS011;5169;50.560;9.714;2022-12-07T08:31:12;6.37;;;5.00;;
10248;SDS011;5169;50.560;9.714;2022-12-07T08:33:47;6.03;;;4.47;;
10248;SDS011;5169;50.560;9.714;2022-12-07T08:36:17;6.83;;;5.00;;
10248;SDS011;5169;50.560;9.714;2022-12-07T08:38:43;7.37;;;5.50;;
10248;SDS011;5169;50.560;9.714;2022-12-07T08:41:12;6.47;;;5.20;;
10248;SDS011;5169;50.560;9.714;2022-12-07T08:43:37;9.97;;;5.50;;
10248;SDS011;5169;50.560;9.714;2022-12-07T08:46:10;7.70;;;5.33;;
10248;SDS011;5169;50.560;9.714;2022-12-07T08:51:26;7.20;;;4.77;;
10248;SDS011;5169;50.560;9.714;2022-12-07T08:53:52;6.57;;;5.07;;
10248;SDS011;5169;50.560;9.714;2022-12-07T08:56:22;7.17;;;4.73;;
10248;SDS011;5169;50.560;9.714;2022-12-07T08:58:49;6.57;;;4.47;;
10248;SDS011;5169;50.560;9.714;2022-12-07T09:01:16;6.63;;;5.03;;
10248;SDS011;5169;50.560;9.714;2022-12-07T09:03:42;8.17;;;5.83;;
10248;SDS011;5169;50.560;9.714;2022-12-07T09:06:10;8.57;;;6.23;;
10248;SDS011;5169;50.560;9.714;2022-12-07T09:08:38;6.63;;;5.27;;
10248;SDS011;5169;50.560;9.714;2022-12-07T09:11:10;6.77;;;4.80;;
10248;SDS011;5169;50.560;9.714;2022-12-07T09:13:38;7.93;;;5.43;;
10248;SDS011;5169;50.560;9.714;2022-12-07T09:16:09;9.53;;;5.27;;
10248;SDS011;5169;50.560;9.714;2022-12-07T09:18:37;8.57;;;5.40;;
10248;SDS011;5169;50.560;9.714;2022-12-07T09:21:06;10.53;;;5.57;;
10248;SDS011;5169;50.560;9.714;2022-12-07T09:23:32;9.07;;;5.57;;
10248;SDS011;5169;50.560;9.714;2022-12-07T09:26:01;8.07;;;5.50;;
10248;SDS011;5169;50.560;9.714;2022-12-07T09:28:31;6.97;;;4.97;;
10248;SDS011;5169;50.560;9.714;2022-12-07T09:30:59;7.40;;;5.30;;
10248;SDS011;5169;50.560;9.714;2022-12-07T09:33:25;7.23;;;5.00;;
10248;SDS011;5169;50.560;9.714;2022-12-07T09:35:52;8.17;;;5.40;;
10248;SDS011;5169;50.560;9.714;2022-12-07T09:38:22;9.13;;;5.30;;
10248;SDS011;5169;50.560;9.714;2022-12-07T09:40:51;8.47;;;5.23;;
10248;SDS011;5169;50.560;9.714;2022-12-07T09:43:23;6.63;;;5.10;;
10248;SDS011;5169;50.560;9.714;2022-12-07T09:45:53;8.00;;;4.93;;
10248;SDS011;5169;50.560;9.714;2022-12-07T09:51:20;6.37;;;4.73;;
10248;SDS011;5169;50.560;9.714;2022-12-07T09:53:51;5.97;;;4.20;;
10248;SDS011;5169;50.560;9.714;2022-12-07T09:56:18;8.03;;;4.60;;
10248;SDS011;5169;50.560;9.714;2022-12-07T09:58:48;6.30;;;4.20;;
10248;SDS011;5169;50.560;9.714;2022-12-07T10:01:17;5.43;;;3.80;;
10248;SDS011;5169;50.560;9.714;2022-12-07T10:03:54;7.80;;;4.93;;
10248;SDS011;5169;50.560;9.714;2022-12-07T10:06:36;6.93;;;4.40;;
10248;SDS011;5169;50.560;9.714;2022-12-07T10:09:07;4.03;;;3.03;;
10248;SDS011;5169;50.560;9.714;2022-12-07T10:11:57;4.13;;;3.73;;
10248;SDS011;5169;50.560;9.714;2022-12-07T10:14:40;5.57;;;3.97;;
10248;SDS011;5169;50.560;9.714;2022-12-07T10:17:32;6.70;;;3.50;;
10248;SDS011;5169;50.560;9.714;2022-12-07T10:22:59;7.57;;;3.40;;
10248;SDS011;5169;50.560;9.714;2022-12-07T10:25:29;7.07;;;3.70;;
10248;SDS011;5169;50.560;9.714;2022-12-07T10:36:24;4.53;;;3.20;;
10248;SDS011;5169;50.560;9.714;2022-12-07T10:38:53;5.10;;;3.10;;
10248;SDS011;5169;50.560;9.714;2022-12-07T10:41:26;5.60;;;3.57;;
10248;SDS011;5169;50.560;9.714;2022-12-07T10:43:54;3.60;;;2.90;;
10248;SDS011;5169;50.560;9.714;2022-12-07T10:46:46;3.90;;;2.90;;
10248;SDS011;5169;50.560;9.714;2022-12-07T10:49:29;5.57;;;2.83;;
10248;SDS011;5169;50.560;9.714;2022-12-07T10:52:18;3.57;;;3.10;;
10248;SDS011;5169;50.560;9.714;2022-12-07T10:57:56;4.03;;;2.60;;
10248;SDS011;5169;50.560;9.714;2022-12-07T11:04:16;4.50;;;2.67;;
10248;SDS011;5169;50.560;9.714;2022-12-07T11:15:01;4.70;;;3.43;;
10248;SDS011;5169;50.560;9.714;2022-12-07T11:22:57;6.33;;;3.33;;
10248;SDS011;5169;50.560;9.714;2022-12-07T11:25:32;3.57;;;2.63;;
10248;SDS011;5169;50.560;9.714;2022-12-07T11:34:00;4.00;;;2.70;;
10248;SDS011;5169;50.560;9.714;2022-12-07T11:36:54;5.10;;;3.23;;
10248;SDS011;5169;50.560;9.714;2022-12-07T11:39:34;9.87;;;4.77;;
10248;SDS011;5169;50.560;9.714;2022-12-07T11:42:12;7.77;;;3.90;;
10248;SDS011;5169;50.560;9.714;2022-12-07T11:44:53;6.37;;;3.17;;
10248;SDS011;5169;50.560;9.714;2022-12-07T11:47:46;6.17;;;4.00;;
10248;SDS011;5169;50.560;9.714;2022-12-07T11:50:23;8.10;;;4.47;;
10248;SDS011;5169;50.560;9.714;2022-12-07T12:06:30;6.27;;;2.47;;
10248;SDS011;5169;50.560;9.714;2022-12-07T12:09:05;5.23;;;3.23;;
10248;SDS011;5169;50.560;9.714;2022-12-07T12:20:19;4.03;;;2.40;;
10248;SDS011;5169;50.560;9.714;2022-12-07T12:25:46;2.80;;;2.23;;
10248;SDS011;5169;50.560;9.714;2022-12-07T12:31:06;6.13;;;3.00;;
10248;SDS011;5169;50.560;9.714;2022-12-07T12:33:49;3.73;;;3.30;;
10248;SDS011;5169;50.560;9.714;2022-12-07T12:57:34;4.10;;;2.17;;
10248;SDS011;5169;50.560;9.714;2022-12-07T13:00:22;4.73;;;2.37;;
10248;SDS011;5169;50.560;9.714;2022-12-07T13:02:56;2.60;;;1.83;;
10248;SDS011;5169;50.560;9.714;2022-12-07T13:05:30;5.37;;;2.40;;
10248;SDS011;5169;50.560;9.714;2022-12-07T13:18:23;7.77;;;3.60;;
10248;SDS011;5169;50.560;9.714;2022-12-07T13:23:26;4.40;;;2.60;;
10248;SDS011;5169;50.560;9.714;2022-12-07T13:28:45;3.90;;;2.50;;
10248;SDS011;5169;50.560;9.714;2022-12-07T13:40:21;4.17;;;2.47;;
10248;SDS011;5169;50.560;9.714;2022-12-07T13:43:00;3.73;;;2.80;;
10248;SDS011;5169;50.560;9.714;2022-12-07T13:45:32;6.13;;;2.57;;
10248;SDS011;5169;50.560;9.714;2022-12-07T13:50:51;3.03;;;2.53;;
10248;SDS011;5169;50.560;9.714;2022-12-07T13:53:22;3.63;;;2.90;;
10248;SDS011;5169;50.560;9.714;2022-12-07T13:55:48;5.47;;;2.67;;
10248;SDS011;5169;50.560;9.714;2022-12-07T13:58:24;3.80;;;2.50;;
10248;SDS011;5169;50.560;9.714;2022-12-07T14:00:58;5.77;;;2.53;;
10248;SDS011;5169;50.560;9.714;2022-12-07T14:03:34;2.53;;;2.00;;
10248;SDS011;5169;50.560;9.714;2022-12-07T14:08:33;5.60;;;2.27;;
10248;SDS011;5169;50.560;9.714;2022-12-07T14:10:58;4.10;;;2.93;;
10248;SDS011;5169;50.560;9.714;2022-12-07T14:13:35;4.70;;;2.90;;
10248;SDS011;5169;50.560;9.714;2022-12-07T14:16:03;2.33;;;1.73;;
10248;SDS011;5169;50.560;9.714;2022-12-07T14:18:49;3.17;;;2.07;;
10248;SDS011;5169;50.560;9.714;2022-12-07T14:21:23;5.70;;;2.63;;
10248;SDS011;5169;50.560;9.714;2022-12-07T14:24:06;3.30;;;2.60;;
10248;SDS011;5169;50.560;9.714;2022-12-07T14:26:37;1.97;;;1.77;;
10248;SDS011;5169;50.560;9.714;2022-12-07T14:31:47;2.80;;;2.30;;
10248;SDS011;5169;50.560;9.714;2022-12-07T14:34:12;5.10;;;2.30;;
10248;SDS011;5169;50.560;9.714;2022-12-07T14:36:38;5.77;;;3.37;;
10248;SDS011;5169;50.560;9.714;2022-12-07T14:39:06;5.87;;;4.13;;
10248;SDS011;5169;50.560;9.714;2022-12-07T14:41:37;4.07;;;2.87;;
10248;SDS011;5169;50.560;9.714;2022-12-07T14:44:20;3.80;;;2.23;;
10248;SDS011;5169;50.560;9.714;2022-12-07T14:46:50;3.40;;;2.60;;
10248;SDS011;5169;50.560;9.714;2022-12-07T14:49:22;4.70;;;2.53;;
10248;SDS011;5169;50.560;9.714;2022-12-07T14:51:50;5.83;;;2.77;;
10248;SDS011;5169;50.560;9.714;2022-12-07T14:54:22;4.43;;;3.13;;
10248;SDS011;5169;50.560;9.714;2022-12-07T14:56:58;2.87;;;2.43;;
10248;SDS011;5169;50.560;9.714;2022-12-07T14:59:24;8.37;;;4.60;;
10248;SDS011;5169;50.560;9.714;2022-12-07T15:01:49;4.60;;;3.70;;
10248;SDS011;5169;50.560;9.714;2022-12-07T15:04:15;6.27;;;3.93;;
10248;SDS011;5169;50.560;9.714;2022-12-07T15:07:10;4.07;;;2.27;;
10248;SDS011;5169;50.560;9.714;2022-12-07T15:09:48;3.40;;;2.33;;
10248;SDS011;5169;50.560;9.714;2022-12-07T15:12:14;4.40;;;2.93;;
10248;SDS011;5169;50.560;9.714;2022-12-07T15:14:43;5.93;;;2.20;;
10248;SDS011;5169;50.560;9.714;2022-12-07T15:17:12;4.17;;;2.73;;
10248;SDS011;5169;50.560;9.714;2022-12-07T15:19:38;5.57;;;3.17;;
10248;SDS011;5169;50.560;9.714;2022-12-07T15:22:08;3.47;;;2.70;;
10248;SDS011;5169;50.560;9.714;2022-12-07T15:24:37;4.50;;;2.60;;
10248;SDS011;5169;50.560;9.714;2022-12-07T15:27:03;3.30;;;2.80;;
10248;SDS011;5169;50.560;9.714;2022-12-07T15:29:31;3.90;;;2.40;;
10248;SDS011;5169;50.560;9.714;2022-12-07T15:31:57;5.60;;;3.23;;
10248;SDS011;5169;50.560;9.714;2022-12-07T15:34:26;5.33;;;3.27;;
10248;SDS011;5169;50.560;9.714;2022-12-07T15:36:57;3.27;;;2.40;;
10248;SDS011;5169;50.560;9.714;2022-12-07T15:39:23;4.83;;;3.10;;
10248;SDS011;5169;50.560;9.714;2022-12-07T15:41:50;5.13;;;2.93;;
10248;SDS011;5169;50.560;9.714;2022-12-07T15:44:20;3.27;;;2.90;;
10248;SDS011;5169;50.560;9.714;2022-12-07T15:47:10;4.03;;;3.33;;
10248;SDS011;5169;50.560;9.714;2022-12-07T15:49:38;5.87;;;3.20;;
10248;SDS011;5169;50.560;9.714;2022-12-07T15:52:11;5.27;;;3.07;;
10248;SDS011;5169;50.560;9.714;2022-12-07T15:54:37;5.87;;;3.60;;
10248;SDS011;5169;50.560;9.714;2022-12-07T15:57:03;4.83;;;2.90;;
10248;SDS011;5169;50.560;9.714;2022-12-07T15:59:34;5.20;;;2.93;;
10248;SDS011;5169;50.560;9.714;2022-12-07T16:02:00;5.63;;;3.17;;
10248;SDS011;5169;50.560;9.714;2022-12-07T16:04:26;6.87;;;3.30;;
10248;SDS011;5169;50.560;9.714;2022-12-07T16:06:57;10.23;;;3.13;;
10248;SDS011;5169;50.560;9.714;2022-12-07T16:09:23;4.90;;;2.97;;
10248;SDS011;5169;50.560;9.714;2022-12-07T16:11:48;3.70;;;3.20;;
10248;SDS011;5169;50.560;9.714;2022-12-07T16:14:15;3.73;;;2.73;;
10248;SDS011;5169;50.560;9.714;2022-12-07T16:16:46;6.17;;;2.87;;
10248;SDS011;5169;50.560;9.714;2022-12-07T16:19:12;4.37;;;2.50;;
10248;SDS011;5169;50.560;9.714;2022-12-07T16:21:38;5.67;;;3.57;;
10248;SDS011;5169;50.560;9.714;2022-12-07T16:24:04;6.23;;;3.40;;
10248;SDS011;5169;50.560;9.714;2022-12-07T16:26:38;4.33;;;2.60;;
10248;SDS011;5169;50.560;9.714;2022-12-07T16:29:03;4.30;;;2.87;;
10248;SDS011;5169;50.560;9.714;2022-12-07T16:31:29;5.63;;;3.43;;
10248;SDS011;5169;50.560;9.714;2022-12-07T16:34:01;4.77;;;3.63;;
10248;SDS011;5169;50.560;9.714;2022-12-07T16:36:26;7.20;;;4.90;;
10248;SDS011;5169;50.560;9.714;2022-12-07T16:38:52;6.33;;;3.60;;
10248;SDS011;5169;50.560;9.714;2022-12-07T16:41:21;8.10;;;4.40;;
10248;SDS011;5169;50.560;9.714;2022-12-07T16:43:47;4.23;;;2.73;;
10248;SDS011;5169;50.560;9.714;2022-12-07T16:46:13;5.57;;;3.30;;
10248;SDS011;5169;50.560;9.714;2022-12-07T16:48:40;7.90;;;4.43;;
10248;SDS011;5169;50.560;9.714;2022-12-07T16:51:06;7.90;;;4.33;;
10248;SDS011;5169;50.560;9.714;2022-12-07T16:53:39;8.20;;;4.97;;
10248;SDS011;5169;50.560;9.714;2022-12-07T16:56:11;6.70;;;3.33;;
10248;SDS011;5169;50.560;9.714;2022-12-07T16:58:38;4.80;;;2.87;;
10248;SDS011;5169;50.560;9.714;2022-12-07T17:04:02;6.10;;;2.97;;
10248;SDS011;5169;50.560;9.714;2022-12-07T17:06:34;4.97;;;3.77;;
10248;SDS011;5169;50.560;9.714;2022-12-07T17:09:00;5.97;;;3.10;;
10248;SDS011;5169;50.560;9.714;2022-12-07T17:11:28;6.37;;;4.13;;
10248;SDS011;5169;50.560;9.714;2022-12-07T17:14:01;9.43;;;4.00;;
10248;SDS011;5169;50.560;9.714;2022-12-07T17:16:48;6.00;;;3.63;;
10248;SDS011;5169;50.560;9.714;2022-12-07T17:19:16;7.17;;;4.70;;
10248;SDS011;5169;50.560;9.714;2022-12-07T17:21:42;7.67;;;3.97;;
10248;SDS011;5169;50.560;9.714;2022-12-07T17:24:13;7.17;;;4.40;;
10248;SDS011;5169;50.560;9.714;2022-12-07T17:26:41;5.63;;;4.17;;
10248;SDS011;5169;50.560;9.714;2022-12-07T17:29:12;8.60;;;3.90;;
10248;SDS011;5169;50.560;9.714;2022-12-07T17:31:40;5.37;;;3.20;;
10248;SDS011;5169;50.560;9.714;2022-12-07T17:34:13;4.53;;;3.00;;
10248;SDS011;5169;50.560;9.714;2022-12-07T17:36:40;6.67;;;3.33;;
10248;SDS011;5169;50.560;9.714;2022-12-07T17:39:14;6.10;;;4.57;;
10248;SDS011;5169;50.560;9.714;2022-12-07T17:41:41;7.87;;;3.70;;
10248;SDS011;5169;50.560;9.714;2022-12-07T17:44:26;5.83;;;3.97;;
10248;SDS011;5169;50.560;9.714;2022-12-07T17:46:52;6.00;;;4.47;;
10248;SDS011;5169;50.560;9.714;2022-12-07T17:49:27;5.80;;;4.27;;
10248;SDS011;5169;50.560;9.714;2022-12-07T17:52:00;7.73;;;4.80;;
10248;SDS011;5169;50.560;9.714;2022-12-07T17:54:48;9.20;;;4.80;;
10248;SDS011;5169;50.560;9.714;2022-12-07T17:57:18;8.73;;;4.40;;
10248;SDS011;5169;50.560;9.714;2022-12-07T17:59:50;8.00;;;5.07;;
10248;SDS011;5169;50.560;9.714;2022-12-07T18:02:16;8.27;;;4.77;;
10248;SDS011;5169;50.560;9.714;2022-12-07T18:04:42;5.87;;;4.33;;
10248;SDS011;5169;50.560;9.714;2022-12-07T18:07:11;6.90;;;4.33;;
10248;SDS011;5169;50.560;9.714;2022-12-07T18:09:40;7.27;;;3.80;;
10248;SDS011;5169;50.560;9.714;2022-12-07T18:12:13;6.03;;;4.30;;